sensor_id;sensor_type;location;lat;lon;timestamp;P1;durP1;ratioP1;P2;durP2;ratioP2
39140;SDS011;24875;48.436;10.298;2022-07-29T00:02:17;10.88;;;6.10;;
39140;SDS011;24875;48.436;10.298;2022-07-29T00:04:45;10.48;;;6.10;;
39140;SDS011;24875;48.436;10.298;2022-07-29T00:07:12;8.63;;;6.03;;
39140;SDS011;24875;48.436;10.298;2022-07-29T00:09:38;9.85;;;5.90;;
39140;SDS011;24875;48.436;10.298;2022-07-29T00:12:05;8.50;;;5.90;;
39140;SDS011;24875;48.436;10.298;2022-07-29T00:14:32;10.32;;;5.43;;
39140;SDS011;24875;48.436;10.298;2022-07-29T00:16:59;9.88;;;5.47;;
39140;SDS011;24875;48.436;10.298;2022-07-29T00:19:25;9.77;;;5.82;;
39140;SDS011;24875;48.436;10.298;2022-07-29T00:21:53;8.90;;;6.00;;
39140;SDS011;24875;48.436;10.298;2022-07-29T00:24:19;8.35;;;5.43;;
39140;SDS011;24875;48.436;10.298;2022-07-29T00:26:46;8.32;;;5.63;;
39140;SDS011;24875;48.436;10.298;2022-07-29T00:29:12;8.68;;;5.93;;
39140;SDS011;24875;48.436;10.298;2022-07-29T00:31:39;9.40;;;5.75;;
39140;SDS011;24875;48.436;10.298;2022-07-29T00:34:05;8.48;;;5.55;;
39140;SDS011;24875;48.436;10.298;2022-07-29T00:36:53;12.13;;;5.95;;
39140;SDS011;24875;48.436;10.298;2022-07-29T00:39:19;12.30;;;6.00;;
39140;SDS011;24875;48.436;10.298;2022-07-29T00:41:45;9.05;;;5.78;;
39140;SDS011;24875;48.436;10.298;2022-07-29T00:44:12;10.75;;;6.60;;
39140;SDS011;24875;48.436;10.298;2022-07-29T00:46:38;10.75;;;6.30;;
39140;SDS011;24875;48.436;10.298;2022-07-29T00:49:05;12.07;;;6.97;;
39140;SDS011;24875;48.436;10.298;2022-07-29T00:51:32;13.43;;;7.25;;
39140;SDS011;24875;48.436;10.298;2022-07-29T00:54:01;11.23;;;6.65;;
39140;SDS011;24875;48.436;10.298;2022-07-29T00:56:29;11.32;;;6.38;;
39140;SDS011;24875;48.436;10.298;2022-07-29T00:58:57;10.85;;;6.53;;
39140;SDS011;24875;48.436;10.298;2022-07-29T01:01:24;18.27;;;6.97;;
39140;SDS011;24875;48.436;10.298;2022-07-29T01:03:50;11.98;;;6.75;;
39140;SDS011;24875;48.436;10.298;2022-07-29T01:06:18;12.75;;;6.85;;
39140;SDS011;24875;48.436;10.298;2022-07-29T01:08:46;10.32;;;6.40;;
39140;SDS011;24875;48.436;10.298;2022-07-29T01:11:15;11.40;;;6.03;;
39140;SDS011;24875;48.436;10.298;2022-07-29T01:13:43;10.82;;;6.18;;
39140;SDS011;24875;48.436;10.298;2022-07-29T01:16:12;9.20;;;5.82;;
39140;SDS011;24875;48.436;10.298;2022-07-29T01:18:44;9.38;;;6.35;;
39140;SDS011;24875;48.436;10.298;2022-07-29T01:21:21;12.07;;;6.50;;
39140;SDS011;24875;48.436;10.298;2022-07-29T01:24:04;12.13;;;6.70;;
39140;SDS011;24875;48.436;10.298;2022-07-29T01:26:57;11.75;;;6.88;;
39140;SDS011;24875;48.436;10.298;2022-07-29T01:29:28;13.02;;;6.93;;
39140;SDS011;24875;48.436;10.298;2022-07-29T01:31:56;13.07;;;7.35;;
39140;SDS011;24875;48.436;10.298;2022-07-29T01:34:29;12.60;;;6.63;;
39140;SDS011;24875;48.436;10.298;2022-07-29T01:37:03;14.20;;;7.07;;
39140;SDS011;24875;48.436;10.298;2022-07-29T01:39:35;10.48;;;7.03;;
39140;SDS011;24875;48.436;10.298;2022-07-29T01:42:05;15.25;;;7.28;;
39140;SDS011;24875;48.436;10.298;2022-07-29T01:44:39;13.27;;;6.68;;
39140;SDS011;24875;48.436;10.298;2022-07-29T01:47:12;10.55;;;7.03;;
39140;SDS011;24875;48.436;10.298;2022-07-29T01:49:43;13.18;;;7.65;;
39140;SDS011;24875;48.436;10.298;2022-07-29T01:52:15;10.82;;;7.53;;
39140;SDS011;24875;48.436;10.298;2022-07-29T01:54:48;9.95;;;7.10;;
39140;SDS011;24875;48.436;10.298;2022-07-29T01:57:20;14.38;;;7.28;;
39140;SDS011;24875;48.436;10.298;2022-07-29T01:59:52;11.50;;;7.28;;
39140;SDS011;24875;48.436;10.298;2022-07-29T02:02:20;11.85;;;7.55;;
39140;SDS011;24875;48.436;10.298;2022-07-29T02:04:48;12.23;;;7.57;;
39140;SDS011;24875;48.436;10.298;2022-07-29T02:07:17;14.40;;;7.53;;
39140;SDS011;24875;48.436;10.298;2022-07-29T02:09:47;11.50;;;7.13;;
39140;SDS011;24875;48.436;10.298;2022-07-29T02:12:16;12.80;;;7.72;;
39140;SDS011;24875;48.436;10.298;2022-07-29T02:14:45;11.60;;;7.15;;
39140;SDS011;24875;48.436;10.298;2022-07-29T02:17:17;13.13;;;8.48;;
39140;SDS011;24875;48.436;10.298;2022-07-29T02:19:48;12.93;;;7.95;;
39140;SDS011;24875;48.436;10.298;2022-07-29T02:22:16;13.00;;;7.50;;
39140;SDS011;24875;48.436;10.298;2022-07-29T02:24:44;12.77;;;7.72;;
39140;SDS011;24875;48.436;10.298;2022-07-29T02:27:11;13.73;;;7.75;;
39140;SDS011;24875;48.436;10.298;2022-07-29T02:29:39;16.00;;;8.30;;
39140;SDS011;24875;48.436;10.298;2022-07-29T02:32:06;14.45;;;7.55;;
39140;SDS011;24875;48.436;10.298;2022-07-29T02:34:36;11.57;;;7.28;;
39140;SDS011;24875;48.436;10.298;2022-07-29T02:37:05;14.80;;;7.90;;
39140;SDS011;24875;48.436;10.298;2022-07-29T02:39:31;13.68;;;7.68;;
39140;SDS011;24875;48.436;10.298;2022-07-29T02:42:13;12.20;;;8.30;;
39140;SDS011;24875;48.436;10.298;2022-07-29T02:44:42;14.60;;;7.55;;
39140;SDS011;24875;48.436;10.298;2022-07-29T02:47:10;14.20;;;7.90;;
39140;SDS011;24875;48.436;10.298;2022-07-29T02:49:43;11.90;;;7.68;;
39140;SDS011;24875;48.436;10.298;2022-07-29T02:52:18;14.00;;;7.68;;
39140;SDS011;24875;48.436;10.298;2022-07-29T02:54:51;14.02;;;7.53;;
39140;SDS011;24875;48.436;10.298;2022-07-29T02:57:22;10.23;;;6.97;;
39140;SDS011;24875;48.436;10.298;2022-07-29T02:59:57;14.80;;;7.50;;
39140;SDS011;24875;48.436;10.298;2022-07-29T03:02:28;13.23;;;7.97;;
39140;SDS011;24875;48.436;10.298;2022-07-29T03:05:01;10.65;;;7.00;;
39140;SDS011;24875;48.436;10.298;2022-07-29T03:07:29;11.05;;;7.25;;
39140;SDS011;24875;48.436;10.298;2022-07-29T03:09:56;12.70;;;7.38;;
39140;SDS011;24875;48.436;10.298;2022-07-29T03:12:23;13.02;;;7.70;;
39140;SDS011;24875;48.436;10.298;2022-07-29T03:14:51;13.88;;;7.75;;
39140;SDS011;24875;48.436;10.298;2022-07-29T03:17:18;14.30;;;8.20;;
39140;SDS011;24875;48.436;10.298;2022-07-29T03:19:45;13.68;;;6.40;;
39140;SDS011;24875;48.436;10.298;2022-07-29T03:22:14;10.57;;;6.70;;
39140;SDS011;24875;48.436;10.298;2022-07-29T03:24:40;13.30;;;6.93;;
39140;SDS011;24875;48.436;10.298;2022-07-29T03:27:07;11.02;;;7.32;;
39140;SDS011;24875;48.436;10.298;2022-07-29T03:29:33;11.48;;;6.97;;
39140;SDS011;24875;48.436;10.298;2022-07-29T03:32:00;9.23;;;6.07;;
39140;SDS011;24875;48.436;10.298;2022-07-29T03:34:28;13.07;;;6.55;;
39140;SDS011;24875;48.436;10.298;2022-07-29T03:36:54;10.07;;;6.28;;
39140;SDS011;24875;48.436;10.298;2022-07-29T03:39:23;8.40;;;6.00;;
39140;SDS011;24875;48.436;10.298;2022-07-29T03:41:55;13.35;;;6.18;;
39140;SDS011;24875;48.436;10.298;2022-07-29T03:44:23;9.73;;;6.53;;
39140;SDS011;24875;48.436;10.298;2022-07-29T03:46:53;9.75;;;6.85;;
39140;SDS011;24875;48.436;10.298;2022-07-29T03:49:23;9.20;;;6.30;;
39140;SDS011;24875;48.436;10.298;2022-07-29T03:51:51;10.25;;;6.32;;
39140;SDS011;24875;48.436;10.298;2022-07-29T03:54:18;12.25;;;6.88;;
39140;SDS011;24875;48.436;10.298;2022-07-29T03:56:46;10.30;;;6.03;;
39140;SDS011;24875;48.436;10.298;2022-07-29T03:59:15;9.35;;;6.10;;
39140;SDS011;24875;48.436;10.298;2022-07-29T04:01:44;10.85;;;6.35;;
39140;SDS011;24875;48.436;10.298;2022-07-29T04:04:11;12.98;;;6.80;;
39140;SDS011;24875;48.436;10.298;2022-07-29T04:06:39;8.60;;;5.82;;
39140;SDS011;24875;48.436;10.298;2022-07-29T04:09:06;12.57;;;6.75;;
39140;SDS011;24875;48.436;10.298;2022-07-29T04:11:32;10.88;;;6.53;;
39140;SDS011;24875;48.436;10.298;2022-07-29T04:14:01;11.30;;;6.43;;
39140;SDS011;24875;48.436;10.298;2022-07-29T04:16:28;11.45;;;7.65;;
39140;SDS011;24875;48.436;10.298;2022-07-29T04:18:54;11.55;;;7.55;;
39140;SDS011;24875;48.436;10.298;2022-07-29T04:21:20;9.60;;;6.57;;
39140;SDS011;24875;48.436;10.298;2022-07-29T04:23:47;9.82;;;6.90;;
39140;SDS011;24875;48.436;10.298;2022-07-29T04:26:15;11.20;;;6.97;;
39140;SDS011;24875;48.436;10.298;2022-07-29T04:28:41;9.68;;;6.32;;
39140;SDS011;24875;48.436;10.298;2022-07-29T04:31:09;13.30;;;8.00;;
39140;SDS011;24875;48.436;10.298;2022-07-29T04:33:36;12.20;;;6.88;;
39140;SDS011;24875;48.436;10.298;2022-07-29T04:36:03;12.93;;;8.20;;
39140;SDS011;24875;48.436;10.298;2022-07-29T04:38:30;14.07;;;8.32;;
39140;SDS011;24875;48.436;10.298;2022-07-29T04:40:57;17.00;;;8.32;;
39140;SDS011;24875;48.436;10.298;2022-07-29T04:43:23;13.40;;;8.77;;
39140;SDS011;24875;48.436;10.298;2022-07-29T04:45:49;14.82;;;8.68;;
39140;SDS011;24875;48.436;10.298;2022-07-29T04:48:17;14.63;;;9.13;;
39140;SDS011;24875;48.436;10.298;2022-07-29T04:50:44;14.90;;;9.02;;
39140;SDS011;24875;48.436;10.298;2022-07-29T04:53:10;16.73;;;9.20;;
39140;SDS011;24875;48.436;10.298;2022-07-29T04:55:37;15.23;;;9.75;;
39140;SDS011;24875;48.436;10.298;2022-07-29T04:58:03;16.73;;;9.27;;
39140;SDS011;24875;48.436;10.298;2022-07-29T05:00:30;15.57;;;9.25;;
39140;SDS011;24875;48.436;10.298;2022-07-29T05:02:56;18.52;;;9.95;;
39140;SDS011;24875;48.436;10.298;2022-07-29T05:05:24;21.95;;;10.70;;
39140;SDS011;24875;48.436;10.298;2022-07-29T05:07:50;15.73;;;9.35;;
39140;SDS011;24875;48.436;10.298;2022-07-29T05:10:17;14.77;;;9.23;;
39140;SDS011;24875;48.436;10.298;2022-07-29T05:12:43;18.02;;;10.10;;
39140;SDS011;24875;48.436;10.298;2022-07-29T05:15:10;17.30;;;9.57;;
39140;SDS011;24875;48.436;10.298;2022-07-29T05:17:36;18.33;;;9.75;;
39140;SDS011;24875;48.436;10.298;2022-07-29T05:20:03;16.58;;;9.85;;
39140;SDS011;24875;48.436;10.298;2022-07-29T05:22:31;15.50;;;8.93;;
39140;SDS011;24875;48.436;10.298;2022-07-29T05:24:58;15.18;;;8.70;;
39140;SDS011;24875;48.436;10.298;2022-07-29T05:27:24;16.40;;;9.18;;
39140;SDS011;24875;48.436;10.298;2022-07-29T05:29:51;16.15;;;8.90;;
39140;SDS011;24875;48.436;10.298;2022-07-29T05:32:17;15.10;;;8.80;;
39140;SDS011;24875;48.436;10.298;2022-07-29T05:34:44;17.17;;;8.20;;
39140;SDS011;24875;48.436;10.298;2022-07-29T05:37:10;12.48;;;7.20;;
39140;SDS011;24875;48.436;10.298;2022-07-29T05:39:39;11.30;;;6.40;;
39140;SDS011;24875;48.436;10.298;2022-07-29T05:42:07;10.63;;;7.25;;
39140;SDS011;24875;48.436;10.298;2022-07-29T05:44:35;11.30;;;6.60;;
39140;SDS011;24875;48.436;10.298;2022-07-29T05:47:02;11.45;;;6.75;;
39140;SDS011;24875;48.436;10.298;2022-07-29T05:49:29;10.38;;;6.03;;
39140;SDS011;24875;48.436;10.298;2022-07-29T05:51:56;10.27;;;5.50;;
39140;SDS011;24875;48.436;10.298;2022-07-29T05:54:23;7.47;;;5.25;;
39140;SDS011;24875;48.436;10.298;2022-07-29T05:56:51;9.60;;;5.20;;
39140;SDS011;24875;48.436;10.298;2022-07-29T05:59:17;6.47;;;4.22;;
39140;SDS011;24875;48.436;10.298;2022-07-29T06:01:44;6.65;;;4.45;;
39140;SDS011;24875;48.436;10.298;2022-07-29T06:04:10;5.50;;;4.03;;
39140;SDS011;24875;48.436;10.298;2022-07-29T06:06:36;9.18;;;4.43;;
39140;SDS011;24875;48.436;10.298;2022-07-29T06:09:03;7.88;;;4.35;;
39140;SDS011;24875;48.436;10.298;2022-07-29T06:11:29;6.78;;;4.32;;
39140;SDS011;24875;48.436;10.298;2022-07-29T06:13:57;5.57;;;3.08;;
39140;SDS011;24875;48.436;10.298;2022-07-29T06:16:24;7.75;;;3.67;;
39140;SDS011;24875;48.436;10.298;2022-07-29T06:18:50;5.47;;;2.97;;
39140;SDS011;24875;48.436;10.298;2022-07-29T06:21:17;6.20;;;3.42;;
39140;SDS011;24875;48.436;10.298;2022-07-29T06:23:43;6.20;;;3.90;;
39140;SDS011;24875;48.436;10.298;2022-07-29T06:26:10;8.75;;;4.18;;
39140;SDS011;24875;48.436;10.298;2022-07-29T06:28:36;5.75;;;3.70;;
39140;SDS011;24875;48.436;10.298;2022-07-29T06:31:04;5.57;;;3.65;;
39140;SDS011;24875;48.436;10.298;2022-07-29T06:33:31;4.32;;;3.25;;
39140;SDS011;24875;48.436;10.298;2022-07-29T06:35:58;4.60;;;2.92;;
39140;SDS011;24875;48.436;10.298;2022-07-29T06:38:25;7.10;;;3.88;;
39140;SDS011;24875;48.436;10.298;2022-07-29T06:40:51;9.77;;;3.78;;
39140;SDS011;24875;48.436;10.298;2022-07-29T06:43:28;5.00;;;3.30;;
39140;SDS011;24875;48.436;10.298;2022-07-29T06:46:02;7.45;;;3.60;;
39140;SDS011;24875;48.436;10.298;2022-07-29T06:48:31;4.32;;;3.30;;
39140;SDS011;24875;48.436;10.298;2022-07-29T06:50:58;4.55;;;3.10;;
39140;SDS011;24875;48.436;10.298;2022-07-29T06:53:25;6.75;;;3.40;;
39140;SDS011;24875;48.436;10.298;2022-07-29T06:55:52;9.18;;;3.38;;
39140;SDS011;24875;48.436;10.298;2022-07-29T06:58:19;4.57;;;2.60;;
39140;SDS011;24875;48.436;10.298;2022-07-29T07:00:46;5.18;;;2.88;;
39140;SDS011;24875;48.436;10.298;2022-07-29T07:03:12;3.35;;;2.42;;
39140;SDS011;24875;48.436;10.298;2022-07-29T07:05:40;5.03;;;2.63;;
39140;SDS011;24875;48.436;10.298;2022-07-29T07:08:07;9.70;;;2.75;;
39140;SDS011;24875;48.436;10.298;2022-07-29T07:10:33;5.55;;;2.65;;
39140;SDS011;24875;48.436;10.298;2022-07-29T07:13:00;5.43;;;2.70;;
39140;SDS011;24875;48.436;10.298;2022-07-29T07:15:27;6.75;;;2.50;;
39140;SDS011;24875;48.436;10.298;2022-07-29T07:17:54;4.07;;;2.60;;
39140;SDS011;24875;48.436;10.298;2022-07-29T07:20:20;4.40;;;2.10;;
39140;SDS011;24875;48.436;10.298;2022-07-29T07:22:48;4.85;;;2.33;;
39140;SDS011;24875;48.436;10.298;2022-07-29T07:25:15;4.80;;;2.38;;
39140;SDS011;24875;48.436;10.298;2022-07-29T07:27:42;4.65;;;2.15;;
39140;SDS011;24875;48.436;10.298;2022-07-29T07:30:09;3.63;;;2.28;;
39140;SDS011;24875;48.436;10.298;2022-07-29T07:32:36;3.05;;;2.38;;
39140;SDS011;24875;48.436;10.298;2022-07-29T07:35:03;4.75;;;2.20;;
39140;SDS011;24875;48.436;10.298;2022-07-29T07:37:30;3.78;;;2.38;;
39140;SDS011;24875;48.436;10.298;2022-07-29T07:39:58;3.38;;;2.10;;
39140;SDS011;24875;48.436;10.298;2022-07-29T07:42:25;7.05;;;2.38;;
39140;SDS011;24875;48.436;10.298;2022-07-29T07:44:52;5.47;;;2.42;;
39140;SDS011;24875;48.436;10.298;2022-07-29T07:47:19;3.45;;;2.05;;
39140;SDS011;24875;48.436;10.298;2022-07-29T07:49:45;3.83;;;2.28;;
39140;SDS011;24875;48.436;10.298;2022-07-29T07:52:12;3.75;;;2.00;;
39140;SDS011;24875;48.436;10.298;2022-07-29T07:54:39;5.68;;;2.08;;
39140;SDS011;24875;48.436;10.298;2022-07-29T07:57:06;4.50;;;2.15;;
39140;SDS011;24875;48.436;10.298;2022-07-29T07:59:33;3.85;;;2.50;;
39140;SDS011;24875;48.436;10.298;2022-07-29T08:01:59;4.85;;;2.00;;
39140;SDS011;24875;48.436;10.298;2022-07-29T08:04:27;3.05;;;1.98;;
39140;SDS011;24875;48.436;10.298;2022-07-29T08:06:53;2.67;;;1.92;;
39140;SDS011;24875;48.436;10.298;2022-07-29T08:09:20;3.97;;;2.45;;
39140;SDS011;24875;48.436;10.298;2022-07-29T08:11:46;4.63;;;2.20;;
39140;SDS011;24875;48.436;10.298;2022-07-29T08:14:14;6.05;;;2.40;;
39140;SDS011;24875;48.436;10.298;2022-07-29T08:16:41;2.92;;;1.92;;
39140;SDS011;24875;48.436;10.298;2022-07-29T08:19:08;4.68;;;2.38;;
39140;SDS011;24875;48.436;10.298;2022-07-29T08:21:34;4.75;;;2.35;;
39140;SDS011;24875;48.436;10.298;2022-07-29T08:24:02;4.38;;;2.42;;
39140;SDS011;24875;48.436;10.298;2022-07-29T08:26:43;7.97;;;2.70;;
39140;SDS011;24875;48.436;10.298;2022-07-29T08:29:09;4.05;;;2.15;;
39140;SDS011;24875;48.436;10.298;2022-07-29T08:31:38;4.38;;;2.70;;
39140;SDS011;24875;48.436;10.298;2022-07-29T08:34:06;4.22;;;2.30;;
39140;SDS011;24875;48.436;10.298;2022-07-29T08:36:33;4.07;;;2.40;;
39140;SDS011;24875;48.436;10.298;2022-07-29T08:39:00;6.20;;;2.35;;
39140;SDS011;24875;48.436;10.298;2022-07-29T08:41:27;3.67;;;2.28;;
39140;SDS011;24875;48.436;10.298;2022-07-29T08:43:54;3.13;;;2.10;;
39140;SDS011;24875;48.436;10.298;2022-07-29T08:46:21;5.53;;;2.20;;
39140;SDS011;24875;48.436;10.298;2022-07-29T08:48:49;7.15;;;3.05;;
39140;SDS011;24875;48.436;10.298;2022-07-29T08:51:16;3.95;;;2.55;;
39140;SDS011;24875;48.436;10.298;2022-07-29T08:53:45;5.65;;;2.75;;
39140;SDS011;24875;48.436;10.298;2022-07-29T08:56:13;4.70;;;2.67;;
39140;SDS011;24875;48.436;10.298;2022-07-29T08:58:41;5.13;;;2.97;;
39140;SDS011;24875;48.436;10.298;2022-07-29T09:01:08;4.45;;;2.72;;
39140;SDS011;24875;48.436;10.298;2022-07-29T09:03:37;6.57;;;3.05;;
39140;SDS011;24875;48.436;10.298;2022-07-29T09:06:06;3.30;;;2.45;;
39140;SDS011;24875;48.436;10.298;2022-07-29T09:08:33;9.32;;;2.97;;
39140;SDS011;24875;48.436;10.298;2022-07-29T09:11:00;4.60;;;3.13;;
39140;SDS011;24875;48.436;10.298;2022-07-29T09:13:28;6.72;;;3.10;;
39140;SDS011;24875;48.436;10.298;2022-07-29T09:15:54;4.03;;;2.40;;
39140;SDS011;24875;48.436;10.298;2022-07-29T09:21:08;5.38;;;3.38;;
39140;SDS011;24875;48.436;10.298;2022-07-29T09:24:02;6.80;;;3.20;;
39140;SDS011;24875;48.436;10.298;2022-07-29T09:26:31;7.05;;;3.35;;
39140;SDS011;24875;48.436;10.298;2022-07-29T09:28:59;6.18;;;3.42;;
39140;SDS011;24875;48.436;10.298;2022-07-29T09:31:34;8.38;;;2.65;;
39140;SDS011;24875;48.436;10.298;2022-07-29T09:34:02;5.63;;;3.17;;
39140;SDS011;24875;48.436;10.298;2022-07-29T09:36:32;8.20;;;3.15;;
39140;SDS011;24875;48.436;10.298;2022-07-29T09:39:05;7.95;;;3.20;;
39140;SDS011;24875;48.436;10.298;2022-07-29T09:41:43;9.30;;;3.45;;
39140;SDS011;24875;48.436;10.298;2022-07-29T09:44:10;5.82;;;3.28;;
39140;SDS011;24875;48.436;10.298;2022-07-29T09:46:37;3.92;;;2.72;;
39140;SDS011;24875;48.436;10.298;2022-07-29T09:49:06;5.97;;;3.20;;
39140;SDS011;24875;48.436;10.298;2022-07-29T09:51:35;7.32;;;3.30;;
39140;SDS011;24875;48.436;10.298;2022-07-29T09:54:02;4.97;;;2.78;;
39140;SDS011;24875;48.436;10.298;2022-07-29T09:56:47;5.57;;;3.20;;
39140;SDS011;24875;48.436;10.298;2022-07-29T09:59:14;4.15;;;2.60;;
39140;SDS011;24875;48.436;10.298;2022-07-29T10:01:41;4.93;;;3.10;;
39140;SDS011;24875;48.436;10.298;2022-07-29T10:04:08;4.30;;;2.78;;
39140;SDS011;24875;48.436;10.298;2022-07-29T10:06:36;4.43;;;3.03;;
39140;SDS011;24875;48.436;10.298;2022-07-29T10:09:22;6.15;;;2.80;;
39140;SDS011;24875;48.436;10.298;2022-07-29T10:12:02;5.57;;;2.80;;
39140;SDS011;24875;48.436;10.298;2022-07-29T10:14:30;8.10;;;3.40;;
39140;SDS011;24875;48.436;10.298;2022-07-29T10:16:57;6.70;;;3.00;;
39140;SDS011;24875;48.436;10.298;2022-07-29T10:19:25;4.22;;;2.42;;
39140;SDS011;24875;48.436;10.298;2022-07-29T10:21:55;4.82;;;3.00;;
39140;SDS011;24875;48.436;10.298;2022-07-29T10:24:22;5.00;;;2.92;;
39140;SDS011;24875;48.436;10.298;2022-07-29T10:26:50;4.55;;;2.70;;
39140;SDS011;24875;48.436;10.298;2022-07-29T10:29:17;4.68;;;2.70;;
39140;SDS011;24875;48.436;10.298;2022-07-29T10:31:47;5.45;;;2.78;;
39140;SDS011;24875;48.436;10.298;2022-07-29T10:34:17;4.03;;;2.72;;
39140;SDS011;24875;48.436;10.298;2022-07-29T10:36:51;5.18;;;2.50;;
39140;SDS011;24875;48.436;10.298;2022-07-29T10:39:33;4.43;;;2.63;;
39140;SDS011;24875;48.436;10.298;2022-07-29T10:42:13;5.65;;;3.00;;
39140;SDS011;24875;48.436;10.298;2022-07-29T10:44:44;7.32;;;3.10;;
39140;SDS011;24875;48.436;10.298;2022-07-29T10:47:19;3.65;;;2.70;;
39140;SDS011;24875;48.436;10.298;2022-07-29T10:49:54;4.28;;;2.60;;
39140;SDS011;24875;48.436;10.298;2022-07-29T10:52:23;3.65;;;2.63;;
39140;SDS011;24875;48.436;10.298;2022-07-29T10:54:53;8.07;;;3.00;;
39140;SDS011;24875;48.436;10.298;2022-07-29T10:57:21;4.65;;;2.55;;
39140;SDS011;24875;48.436;10.298;2022-07-29T11:02:53;4.75;;;2.72;;
39140;SDS011;24875;48.436;10.298;2022-07-29T11:05:21;3.85;;;2.60;;
39140;SDS011;24875;48.436;10.298;2022-07-29T11:10:52;5.70;;;2.80;;
39140;SDS011;24875;48.436;10.298;2022-07-29T11:13:47;4.70;;;2.78;;
39140;SDS011;24875;48.436;10.298;2022-07-29T11:16:15;4.35;;;2.67;;
39140;SDS011;24875;48.436;10.298;2022-07-29T11:21:47;3.22;;;2.28;;
39140;SDS011;24875;48.436;10.298;2022-07-29T11:24:15;3.03;;;2.33;;
39140;SDS011;24875;48.436;10.298;2022-07-29T11:26:42;3.78;;;2.22;;
39140;SDS011;24875;48.436;10.298;2022-07-29T11:29:16;2.70;;;2.25;;
39140;SDS011;24875;48.436;10.298;2022-07-29T11:31:48;2.78;;;1.92;;
39140;SDS011;24875;48.436;10.298;2022-07-29T11:34:20;4.47;;;2.50;;
39140;SDS011;24875;48.436;10.298;2022-07-29T11:39:46;2.80;;;2.28;;
39140;SDS011;24875;48.436;10.298;2022-07-29T11:42:37;6.38;;;2.40;;
39140;SDS011;24875;48.436;10.298;2022-07-29T11:45:10;2.58;;;2.00;;
39140;SDS011;24875;48.436;10.298;2022-07-29T11:47:40;3.28;;;2.08;;
39140;SDS011;24875;48.436;10.298;2022-07-29T11:50:08;2.65;;;2.00;;
39140;SDS011;24875;48.436;10.298;2022-07-29T11:52:39;3.78;;;2.17;;
39140;SDS011;24875;48.436;10.298;2022-07-29T11:55:11;3.33;;;2.30;;
39140;SDS011;24875;48.436;10.298;2022-07-29T11:57:45;4.90;;;2.08;;
39140;SDS011;24875;48.436;10.298;2022-07-29T12:00:20;2.90;;;2.13;;
39140;SDS011;24875;48.436;10.298;2022-07-29T12:02:48;4.28;;;2.20;;
39140;SDS011;24875;48.436;10.298;2022-07-29T12:05:15;2.97;;;2.00;;
39140;SDS011;24875;48.436;10.298;2022-07-29T12:07:42;4.57;;;1.60;;
39140;SDS011;24875;48.436;10.298;2022-07-29T12:10:09;2.45;;;1.50;;
39140;SDS011;24875;48.436;10.298;2022-07-29T12:12:36;2.70;;;1.77;;
39140;SDS011;24875;48.436;10.298;2022-07-29T12:15:14;2.90;;;1.75;;
39140;SDS011;24875;48.436;10.298;2022-07-29T12:17:45;3.88;;;2.10;;
39140;SDS011;24875;48.436;10.298;2022-07-29T12:20:11;4.07;;;2.08;;
39140;SDS011;24875;48.436;10.298;2022-07-29T12:22:39;4.10;;;1.90;;
39140;SDS011;24875;48.436;10.298;2022-07-29T12:25:09;2.45;;;1.75;;
39140;SDS011;24875;48.436;10.298;2022-07-29T12:27:39;3.20;;;1.80;;
39140;SDS011;24875;48.436;10.298;2022-07-29T12:30:07;3.30;;;1.98;;
39140;SDS011;24875;48.436;10.298;2022-07-29T12:32:36;3.22;;;1.80;;
39140;SDS011;24875;48.436;10.298;2022-07-29T12:35:04;3.03;;;2.10;;
39140;SDS011;24875;48.436;10.298;2022-07-29T12:37:32;3.35;;;1.98;;
39140;SDS011;24875;48.436;10.298;2022-07-29T12:40:00;3.83;;;2.17;;
39140;SDS011;24875;48.436;10.298;2022-07-29T12:42:27;4.68;;;2.10;;
39140;SDS011;24875;48.436;10.298;2022-07-29T12:44:53;4.15;;;1.90;;
39140;SDS011;24875;48.436;10.298;2022-07-29T12:47:20;5.75;;;1.77;;
39140;SDS011;24875;48.436;10.298;2022-07-29T12:49:48;5.45;;;2.22;;
39140;SDS011;24875;48.436;10.298;2022-07-29T12:52:25;5.43;;;2.33;;
39140;SDS011;24875;48.436;10.298;2022-07-29T12:54:53;5.82;;;2.17;;
39140;SDS011;24875;48.436;10.298;2022-07-29T12:57:20;4.05;;;2.15;;
39140;SDS011;24875;48.436;10.298;2022-07-29T12:59:58;2.95;;;1.88;;
39140;SDS011;24875;48.436;10.298;2022-07-29T13:02:33;2.33;;;1.90;;
39140;SDS011;24875;48.436;10.298;2022-07-29T13:05:02;3.10;;;2.03;;
39140;SDS011;24875;48.436;10.298;2022-07-29T13:07:30;2.75;;;1.88;;
39140;SDS011;24875;48.436;10.298;2022-07-29T13:10:09;3.28;;;1.98;;
39140;SDS011;24875;48.436;10.298;2022-07-29T13:12:38;3.55;;;2.33;;
39140;SDS011;24875;48.436;10.298;2022-07-29T13:15:12;2.28;;;1.90;;
39140;SDS011;24875;48.436;10.298;2022-07-29T13:17:40;2.53;;;1.83;;
39140;SDS011;24875;48.436;10.298;2022-07-29T13:20:10;2.40;;;1.90;;
39140;SDS011;24875;48.436;10.298;2022-07-29T13:22:39;3.70;;;1.95;;
39140;SDS011;24875;48.436;10.298;2022-07-29T13:25:07;4.28;;;2.10;;
39140;SDS011;24875;48.436;10.298;2022-07-29T13:27:35;2.90;;;2.00;;
39140;SDS011;24875;48.436;10.298;2022-07-29T13:30:05;2.28;;;2.00;;
39140;SDS011;24875;48.436;10.298;2022-07-29T13:32:33;4.53;;;1.80;;
39140;SDS011;24875;48.436;10.298;2022-07-29T13:35:03;3.00;;;1.65;;
39140;SDS011;24875;48.436;10.298;2022-07-29T13:37:32;2.70;;;2.13;;
39140;SDS011;24875;48.436;10.298;2022-07-29T13:40:03;2.72;;;2.00;;
39140;SDS011;24875;48.436;10.298;2022-07-29T13:42:31;3.13;;;2.05;;
39140;SDS011;24875;48.436;10.298;2022-07-29T13:44:58;2.88;;;2.13;;
39140;SDS011;24875;48.436;10.298;2022-07-29T13:47:25;3.15;;;2.08;;
39140;SDS011;24875;48.436;10.298;2022-07-29T13:49:52;3.13;;;1.90;;
39140;SDS011;24875;48.436;10.298;2022-07-29T13:52:18;4.22;;;2.00;;
39140;SDS011;24875;48.436;10.298;2022-07-29T13:54:46;2.78;;;2.00;;
39140;SDS011;24875;48.436;10.298;2022-07-29T13:57:13;6.03;;;2.33;;
39140;SDS011;24875;48.436;10.298;2022-07-29T13:59:40;2.58;;;2.10;;
39140;SDS011;24875;48.436;10.298;2022-07-29T14:02:08;6.70;;;2.22;;
39140;SDS011;24875;48.436;10.298;2022-07-29T14:04:36;2.58;;;1.90;;
39140;SDS011;24875;48.436;10.298;2022-07-29T14:07:02;2.28;;;1.40;;
39140;SDS011;24875;48.436;10.298;2022-07-29T14:09:29;2.25;;;1.70;;
39140;SDS011;24875;48.436;10.298;2022-07-29T14:11:57;1.98;;;1.15;;
39140;SDS011;24875;48.436;10.298;2022-07-29T14:14:23;2.85;;;1.48;;
39140;SDS011;24875;48.436;10.298;2022-07-29T14:16:50;2.25;;;1.85;;
39140;SDS011;24875;48.436;10.298;2022-07-29T14:19:16;4.63;;;2.30;;
39140;SDS011;24875;48.436;10.298;2022-07-29T14:21:43;11.32;;;3.33;;
39140;SDS011;24875;48.436;10.298;2022-07-29T14:24:09;12.15;;;3.95;;
39140;SDS011;24875;48.436;10.298;2022-07-29T14:26:35;10.52;;;4.32;;
39140;SDS011;24875;48.436;10.298;2022-07-29T14:29:03;13.63;;;4.53;;
39140;SDS011;24875;48.436;10.298;2022-07-29T14:31:30;11.00;;;4.28;;
39140;SDS011;24875;48.436;10.298;2022-07-29T14:33:56;7.78;;;3.85;;
39140;SDS011;24875;48.436;10.298;2022-07-29T14:36:23;7.68;;;4.05;;
39140;SDS011;24875;48.436;10.298;2022-07-29T14:38:49;8.57;;;3.92;;
39140;SDS011;24875;48.436;10.298;2022-07-29T14:41:16;9.38;;;4.65;;
39140;SDS011;24875;48.436;10.298;2022-07-29T14:43:42;6.47;;;3.90;;
39140;SDS011;24875;48.436;10.298;2022-07-29T14:46:10;5.57;;;3.65;;
39140;SDS011;24875;48.436;10.298;2022-07-29T14:48:36;5.15;;;3.75;;
39140;SDS011;24875;48.436;10.298;2022-07-29T14:51:03;11.68;;;4.30;;
39140;SDS011;24875;48.436;10.298;2022-07-29T14:53:30;6.68;;;4.10;;
39140;SDS011;24875;48.436;10.298;2022-07-29T14:55:56;10.82;;;3.60;;